sensor_id;sensor_type;location;lat;lon;timestamp;pressure;altitude;pressure_sealevel;temperature;humidity
7335;BME280;3708;42.632;23.378;2022-10-03T00:01:18;94317.38;;;15.16;52.17
7335;BME280;3708;42.632;23.378;2022-10-03T00:03:58;94324.69;;;14.72;53.52
7335;BME280;3708;42.632;23.378;2022-10-03T00:06:38;94312.47;;;14.99;53.01
7335;BME280;3708;42.632;23.378;2022-10-03T00:09:22;94316.47;;;14.93;53.32
7335;BME280;3708;42.632;23.378;2022-10-03T00:12:08;94312.44;;;15.14;53.22
7335;BME280;3708;42.632;23.378;2022-10-03T00:14:43;94313.06;;;15.27;53.19
7335;BME280;3708;42.632;23.378;2022-10-03T00:17:17;94305.84;;;15.24;53.21
7335;BME280;3708;42.632;23.378;2022-10-03T00:19:51;94300.22;;;15.25;52.90
7335;BME280;3708;42.632;23.378;2022-10-03T00:22:29;94291.94;;;15.08;53.13
7335;BME280;3708;42.632;23.378;2022-10-03T00:25:13;94279.94;;;15.29;53.62
7335;BME280;3708;42.632;23.378;2022-10-03T00:27:48;94280.88;;;15.37;53.00
7335;BME280;3708;42.632;23.378;2022-10-03T00:30:20;94277.81;;;15.35;52.81
7335;BME280;3708;42.632;23.378;2022-10-03T00:32:59;94286.78;;;15.31;52.88
7335;BME280;3708;42.632;23.378;2022-10-03T00:35:53;94282.81;;;15.40;53.05
7335;BME280;3708;42.632;23.378;2022-10-03T00:38:38;94280.13;;;15.56;53.20
7335;BME280;3708;42.632;23.378;2022-10-03T00:41:29;94285.59;;;15.66;53.12
7335;BME280;3708;42.632;23.378;2022-10-03T00:44:35;94286.56;;;15.39;52.74
7335;BME280;3708;42.632;23.378;2022-10-03T00:47:20;94280.97;;;15.25;53.08
7335;BME280;3708;42.632;23.378;2022-10-03T00:50:17;94283.16;;;15.39;53.32
7335;BME280;3708;42.632;23.378;2022-10-03T00:53:22;94289.47;;;15.34;53.20
7335;BME280;3708;42.632;23.378;2022-10-03T00:56:02;94297.94;;;15.24;53.70
7335;BME280;3708;42.632;23.378;2022-10-03T00:58:59;94295.34;;;15.43;53.68
7335;BME280;3708;42.632;23.378;2022-10-03T01:01:36;94287.75;;;15.42;53.34
7335;BME280;3708;42.632;23.378;2022-10-03T01:04:17;94292.44;;;15.48;53.33
7335;BME280;3708;42.632;23.378;2022-10-03T01:06:58;94280.94;;;15.21;54.07
7335;BME280;3708;42.632;23.378;2022-10-03T01:09:34;94273.97;;;15.48;53.82
7335;BME280;3708;42.632;23.378;2022-10-03T01:12:18;94269.19;;;15.38;53.67
7335;BME280;3708;42.632;23.378;2022-10-03T01:15:08;94277.84;;;15.54;54.33
7335;BME280;3708;42.632;23.378;2022-10-03T01:17:51;94267.53;;;15.68;53.65
7335;BME280;3708;42.632;23.378;2022-10-03T01:20:26;94272.94;;;15.75;53.51
7335;BME280;3708;42.632;23.378;2022-10-03T01:23:17;94279.66;;;15.50;53.71
7335;BME280;3708;42.632;23.378;2022-10-03T01:25:53;94277.69;;;15.66;53.65
7335;BME280;3708;42.632;23.378;2022-10-03T01:28:46;94270.72;;;15.77;53.27
7335;BME280;3708;42.632;23.378;2022-10-03T01:31:39;94268.06;;;15.55;54.38
7335;BME280;3708;42.632;23.378;2022-10-03T01:34:15;94253.09;;;15.62;53.85
7335;BME280;3708;42.632;23.378;2022-10-03T01:36:52;94249.47;;;15.70;53.47
7335;BME280;3708;42.632;23.378;2022-10-03T01:39:25;94254.91;;;15.58;54.00
7335;BME280;3708;42.632;23.378;2022-10-03T01:41:57;94258.63;;;15.76;53.92
7335;BME280;3708;42.632;23.378;2022-10-03T01:44:30;94261.06;;;15.66;54.39
7335;BME280;3708;42.632;23.378;2022-10-03T01:47:16;94254.19;;;15.80;54.00
7335;BME280;3708;42.632;23.378;2022-10-03T01:49:52;94253.06;;;15.81;53.71
7335;BME280;3708;42.632;23.378;2022-10-03T01:52:29;94261.88;;;15.89;53.50
7335;BME280;3708;42.632;23.378;2022-10-03T01:55:06;94252.59;;;15.98;53.49
7335;BME280;3708;42.632;23.378;2022-10-03T01:57:43;94248.56;;;16.04;53.51
7335;BME280;3708;42.632;23.378;2022-10-03T02:00:13;94246.81;;;16.12;53.43
7335;BME280;3708;42.632;23.378;2022-10-03T02:02:45;94243.28;;;16.04;53.19
7335;BME280;3708;42.632;23.378;2022-10-03T02:05:18;94239.94;;;16.08;53.13
7335;BME280;3708;42.632;23.378;2022-10-03T02:07:54;94244.03;;;16.05;53.29
7335;BME280;3708;42.632;23.378;2022-10-03T02:10:31;94244.69;;;15.98;53.16
7335;BME280;3708;42.632;23.378;2022-10-03T02:13:08;94240.22;;;16.02;53.31
7335;BME280;3708;42.632;23.378;2022-10-03T02:15:54;94241.34;;;16.01;53.14
7335;BME280;3708;42.632;23.378;2022-10-03T02:18:28;94238.63;;;15.98;53.09
7335;BME280;3708;42.632;23.378;2022-10-03T02:21:08;94241.44;;;15.86;52.83
7335;BME280;3708;42.632;23.378;2022-10-03T02:23:40;94243.34;;;15.66;53.62
7335;BME280;3708;42.632;23.378;2022-10-03T02:29:45;94242.63;;;15.88;53.36
7335;BME280;3708;42.632;23.378;2022-10-03T02:35:50;94240.16;;;15.99;52.80
7335;BME280;3708;42.632;23.378;2022-10-03T02:38:56;94242.50;;;14.86;55.65
7335;BME280;3708;42.632;23.378;2022-10-03T02:41:50;94240.94;;;15.19;54.89
7335;BME280;3708;42.632;23.378;2022-10-03T02:50:51;94239.06;;;15.58;54.06
7335;BME280;3708;42.632;23.378;2022-10-03T02:57:03;94245.34;;;15.50;54.45
7335;BME280;3708;42.632;23.378;2022-10-03T02:59:59;94250.72;;;15.38;54.94
7335;BME280;3708;42.632;23.378;2022-10-03T03:06:07;94242.53;;;15.24;55.75
7335;BME280;3708;42.632;23.378;2022-10-03T03:09:14;94240.88;;;15.16;56.10
7335;BME280;3708;42.632;23.378;2022-10-03T03:12:08;94235.34;;;14.86;56.38
7335;BME280;3708;42.632;23.378;2022-10-03T03:15:23;94233.53;;;14.90;56.56
7335;BME280;3708;42.632;23.378;2022-10-03T03:18:01;94239.06;;;15.01;56.91
7335;BME280;3708;42.632;23.378;2022-10-03T03:20:42;94238.19;;;14.97;56.62
7335;BME280;3708;42.632;23.378;2022-10-03T03:23:32;94234.88;;;14.65;56.80
7335;BME280;3708;42.632;23.378;2022-10-03T03:26:20;94230.16;;;14.55;57.81
7335;BME280;3708;42.632;23.378;2022-10-03T03:28:57;94235.22;;;14.64;58.04
7335;BME280;3708;42.632;23.378;2022-10-03T03:31:35;94228.31;;;14.75;57.26
7335;BME280;3708;42.632;23.378;2022-10-03T03:34:09;94228.81;;;14.80;57.39
7335;BME280;3708;42.632;23.378;2022-10-03T03:36:48;94232.63;;;14.83;57.28
7335;BME280;3708;42.632;23.378;2022-10-03T03:39:40;94233.22;;;14.57;57.43
7335;BME280;3708;42.632;23.378;2022-10-03T03:42:38;94224.16;;;14.74;57.53
7335;BME280;3708;42.632;23.378;2022-10-03T03:45:18;94222.06;;;14.64;57.95
7335;BME280;3708;42.632;23.378;2022-10-03T03:47:58;94222.44;;;14.31;58.31
7335;BME280;3708;42.632;23.378;2022-10-03T03:50:37;94229.31;;;14.35;58.40
7335;BME280;3708;42.632;23.378;2022-10-03T03:54:02;94219.97;;;14.22;58.29
7335;BME280;3708;42.632;23.378;2022-10-03T03:56:52;94213.25;;;14.40;58.36
7335;BME280;3708;42.632;23.378;2022-10-03T03:59:47;94209.38;;;14.53;58.22
7335;BME280;3708;42.632;23.378;2022-10-03T04:02:35;94199.97;;;14.52;57.98
7335;BME280;3708;42.632;23.378;2022-10-03T04:05:31;94205.06;;;14.61;58.13
7335;BME280;3708;42.632;23.378;2022-10-03T04:08:15;94203.91;;;14.27;58.36
7335;BME280;3708;42.632;23.378;2022-10-03T04:10:56;94189.38;;;14.49;58.67
7335;BME280;3708;42.632;23.378;2022-10-03T04:13:45;94200.69;;;14.69;58.27
7335;BME280;3708;42.632;23.378;2022-10-03T04:19:32;94198.16;;;14.91;57.59
7335;BME280;3708;42.632;23.378;2022-10-03T04:22:17;94193.56;;;14.88;57.61
7335;BME280;3708;42.632;23.378;2022-10-03T04:25:22;94199.13;;;15.02;57.86
7335;BME280;3708;42.632;23.378;2022-10-03T04:28:08;94198.03;;;14.69;58.62
7335;BME280;3708;42.632;23.378;2022-10-03T04:30:48;94187.53;;;14.88;58.13
7335;BME280;3708;42.632;23.378;2022-10-03T04:33:33;94192.47;;;14.89;58.00
7335;BME280;3708;42.632;23.378;2022-10-03T04:36:32;94198.84;;;14.88;58.25
7335;BME280;3708;42.632;23.378;2022-10-03T04:39:10;94214.56;;;14.66;58.25
7335;BME280;3708;42.632;23.378;2022-10-03T04:41:47;94204.44;;;14.68;58.70
7335;BME280;3708;42.632;23.378;2022-10-03T04:44:35;94197.06;;;14.58;59.51
7335;BME280;3708;42.632;23.378;2022-10-03T04:47:17;94188.97;;;14.31;59.33
7335;BME280;3708;42.632;23.378;2022-10-03T04:50:35;94192.91;;;13.63;61.68
7335;BME280;3708;42.632;23.378;2022-10-03T04:53:18;94189.88;;;13.61;62.05
7335;BME280;3708;42.632;23.378;2022-10-03T04:56:08;94195.44;;;13.44;62.89
7335;BME280;3708;42.632;23.378;2022-10-03T04:58:55;94210.28;;;13.95;62.22
7335;BME280;3708;42.632;23.378;2022-10-03T05:01:34;94194.88;;;14.13;61.09
7335;BME280;3708;42.632;23.378;2022-10-03T05:04:18;94194.56;;;14.30;60.79
7335;BME280;3708;42.632;23.378;2022-10-03T05:07:00;94196.50;;;14.48;60.57
7335;BME280;3708;42.632;23.378;2022-10-03T05:09:37;94195.84;;;14.71;60.35
7335;BME280;3708;42.632;23.378;2022-10-03T05:12:14;94205.66;;;14.89;59.85
7335;BME280;3708;42.632;23.378;2022-10-03T05:15:17;94206.84;;;15.11;59.36
7335;BME280;3708;42.632;23.378;2022-10-03T05:17:54;94197.81;;;15.12;58.81
7335;BME280;3708;42.632;23.378;2022-10-03T05:20:42;94197.38;;;15.10;58.83
7335;BME280;3708;42.632;23.378;2022-10-03T05:23:21;94201.72;;;15.18;58.47
7335;BME280;3708;42.632;23.378;2022-10-03T05:25:57;94201.56;;;15.11;59.14
7335;BME280;3708;42.632;23.378;2022-10-03T05:28:35;94204.47;;;15.06;58.64
7335;BME280;3708;42.632;23.378;2022-10-03T05:31:22;94202.19;;;15.23;58.42
7335;BME280;3708;42.632;23.378;2022-10-03T05:33:58;94207.25;;;15.32;57.56
7335;BME280;3708;42.632;23.378;2022-10-03T05:36:49;94188.78;;;15.13;57.66
7335;BME280;3708;42.632;23.378;2022-10-03T05:39:37;94198.56;;;15.12;58.96
7335;BME280;3708;42.632;23.378;2022-10-03T05:42:33;94177.38;;;15.47;58.55
7335;BME280;3708;42.632;23.378;2022-10-03T05:45:03;94175.94;;;15.50;58.67
7335;BME280;3708;42.632;23.378;2022-10-03T05:47:40;94176.75;;;15.54;58.43
7335;BME280;3708;42.632;23.378;2022-10-03T05:50:39;94161.56;;;15.47;59.05
7335;BME280;3708;42.632;23.378;2022-10-03T05:53:19;94160.81;;;15.69;58.30
7335;BME280;3708;42.632;23.378;2022-10-03T05:56:02;94166.88;;;15.70;57.85
7335;BME280;3708;42.632;23.378;2022-10-03T05:59:04;94171.28;;;15.66;57.16
7335;BME280;3708;42.632;23.378;2022-10-03T06:01:55;94168.84;;;15.76;56.84
7335;BME280;3708;42.632;23.378;2022-10-03T06:07:31;94170.78;;;15.79;56.81
7335;BME280;3708;42.632;23.378;2022-10-03T06:10:23;94186.22;;;15.77;56.61
7335;BME280;3708;42.632;23.378;2022-10-03T06:13:10;94192.84;;;15.90;56.64
7335;BME280;3708;42.632;23.378;2022-10-03T06:15:53;94203.28;;;15.83;56.01
7335;BME280;3708;42.632;23.378;2022-10-03T06:24:31;94205.75;;;15.50;58.11
7335;BME280;3708;42.632;23.378;2022-10-03T06:27:27;94199.28;;;15.70;57.74
7335;BME280;3708;42.632;23.378;2022-10-03T06:30:13;94214.81;;;15.72;58.04
7335;BME280;3708;42.632;23.378;2022-10-03T06:39:31;94209.84;;;16.16;56.42
7335;BME280;3708;42.632;23.378;2022-10-03T06:51:54;94216.13;;;16.79;53.43
7335;BME280;3708;42.632;23.378;2022-10-03T06:57:48;94220.47;;;16.42;56.77
7335;BME280;3708;42.632;23.378;2022-10-03T07:00:31;94220.06;;;16.62;56.21
7335;BME280;3708;42.632;23.378;2022-10-03T07:03:40;94226.81;;;16.60;56.65
7335;BME280;3708;42.632;23.378;2022-10-03T07:06:30;94228.13;;;16.99;55.61
7335;BME280;3708;42.632;23.378;2022-10-03T07:12:51;94244.84;;;16.81;55.66
7335;BME280;3708;42.632;23.378;2022-10-03T07:15:53;94266.28;;;16.49;56.46
7335;BME280;3708;42.632;23.378;2022-10-03T07:19:02;94264.63;;;16.41;56.61
7335;BME280;3708;42.632;23.378;2022-10-03T07:21:54;94274.47;;;16.41;56.52
7335;BME280;3708;42.632;23.378;2022-10-03T07:24:53;94280.28;;;16.50;56.65
7335;BME280;3708;42.632;23.378;2022-10-03T07:27:44;94290.25;;;16.37;56.81
7335;BME280;3708;42.632;23.378;2022-10-03T07:30:18;94308.16;;;16.25;57.18
7335;BME280;3708;42.632;23.378;2022-10-03T07:36:31;94331.38;;;14.23;64.39
7335;BME280;3708;42.632;23.378;2022-10-03T07:45:40;94308.97;;;15.29;62.76
7335;BME280;3708;42.632;23.378;2022-10-03T07:48:40;94329.06;;;14.84;63.99
7335;BME280;3708;42.632;23.378;2022-10-03T07:51:13;94326.34;;;14.96;63.85
7335;BME280;3708;42.632;23.378;2022-10-03T07:57:15;94328.63;;;15.32;62.53
7335;BME280;3708;42.632;23.378;2022-10-03T08:00:12;94319.38;;;15.57;61.97
7335;BME280;3708;42.632;23.378;2022-10-03T08:12:25;94313.44;;;16.02;60.87
7335;BME280;3708;42.632;23.378;2022-10-03T08:14:58;94326.09;;;15.93;60.64
7335;BME280;3708;42.632;23.378;2022-10-03T08:18:00;94327.94;;;16.12;59.89
7335;BME280;3708;42.632;23.378;2022-10-03T08:20:40;94326.06;;;16.35;59.49
7335;BME280;3708;42.632;23.378;2022-10-03T08:23:47;94331.63;;;16.07;59.40
7335;BME280;3708;42.632;23.378;2022-10-03T08:26:31;94330.44;;;16.24;59.51
7335;BME280;3708;42.632;23.378;2022-10-03T08:29:27;94326.63;;;16.21;59.86
7335;BME280;3708;42.632;23.378;2022-10-03T08:34:59;94326.66;;;15.83;61.38
7335;BME280;3708;42.632;23.378;2022-10-03T08:40:54;94324.53;;;15.15;64.83
7335;BME280;3708;42.632;23.378;2022-10-03T08:47:01;94323.69;;;15.11;65.38
7335;BME280;3708;42.632;23.378;2022-10-03T08:49:54;94329.03;;;15.15;64.74
7335;BME280;3708;42.632;23.378;2022-10-03T08:52:33;94328.22;;;15.30;64.80
7335;BME280;3708;42.632;23.378;2022-10-03T08:55:47;94329.09;;;15.53;64.17
7335;BME280;3708;42.632;23.378;2022-10-03T08:58:52;94326.66;;;15.10;65.93
7335;BME280;3708;42.632;23.378;2022-10-03T09:05:03;94323.06;;;15.18;66.64
7335;BME280;3708;42.632;23.378;2022-10-03T09:17:05;94316.28;;;16.81;61.48
7335;BME280;3708;42.632;23.378;2022-10-03T09:19:58;94311.03;;;15.93;63.37
7335;BME280;3708;42.632;23.378;2022-10-03T09:22:58;94322.06;;;16.22;62.61
7335;BME280;3708;42.632;23.378;2022-10-03T09:25:44;94305.81;;;16.42;62.53
7335;BME280;3708;42.632;23.378;2022-10-03T09:31:23;94303.72;;;15.68;63.70
7335;BME280;3708;42.632;23.378;2022-10-03T09:34:17;94310.53;;;15.88;62.02
7335;BME280;3708;42.632;23.378;2022-10-03T09:37:23;94311.59;;;15.64;63.03
7335;BME280;3708;42.632;23.378;2022-10-03T09:40:30;94308.09;;;15.79;63.48
7335;BME280;3708;42.632;23.378;2022-10-03T09:43:37;94299.00;;;15.77;62.94
7335;BME280;3708;42.632;23.378;2022-10-03T09:46:29;94302.28;;;15.70;63.61
7335;BME280;3708;42.632;23.378;2022-10-03T09:49:47;94306.13;;;16.15;63.49
7335;BME280;3708;42.632;23.378;2022-10-03T09:52:31;94316.16;;;16.06;63.13
7335;BME280;3708;42.632;23.378;2022-10-03T09:55:22;94305.06;;;15.77;63.61
7335;BME280;3708;42.632;23.378;2022-10-03T09:58:23;94307.84;;;15.46;62.44
7335;BME280;3708;42.632;23.378;2022-10-03T10:01:10;94299.56;;;15.86;62.09
7335;BME280;3708;42.632;23.378;2022-10-03T10:07:16;94302.81;;;15.22;62.09
7335;BME280;3708;42.632;23.378;2022-10-03T10:13:11;94306.00;;;16.08;59.80
7335;BME280;3708;42.632;23.378;2022-10-03T10:16:05;94295.53;;;15.73;59.63
7335;BME280;3708;42.632;23.378;2022-10-03T10:22:02;94297.13;;;16.19;57.74
7335;BME280;3708;42.632;23.378;2022-10-03T10:24:53;94290.41;;;16.02;57.16
7335;BME280;3708;42.632;23.378;2022-10-03T10:31:21;94296.88;;;15.63;57.74
7335;BME280;3708;42.632;23.378;2022-10-03T10:34:14;94310.81;;;16.02;56.50
7335;BME280;3708;42.632;23.378;2022-10-03T10:46:32;94294.91;;;16.21;55.28
7335;BME280;3708;42.632;23.378;2022-10-03T10:49:38;94306.00;;;16.08;55.12
7335;BME280;3708;42.632;23.378;2022-10-03T11:02:14;94331.31;;;15.89;54.50
7335;BME280;3708;42.632;23.378;2022-10-03T11:05:46;94321.81;;;15.85;54.18
7335;BME280;3708;42.632;23.378;2022-10-03T11:11:47;94310.59;;;17.05;52.03
7335;BME280;3708;42.632;23.378;2022-10-03T11:14:37;94287.69;;;16.41;51.99
7335;BME280;3708;42.632;23.378;2022-10-03T11:17:35;94299.56;;;16.50;52.59
7335;BME280;3708;42.632;23.378;2022-10-03T11:20:45;94297.38;;;16.33;52.90
7335;BME280;3708;42.632;23.378;2022-10-03T11:23:41;94324.59;;;17.05;52.24
7335;BME280;3708;42.632;23.378;2022-10-03T11:33:07;94330.47;;;15.85;55.35
7335;BME280;3708;42.632;23.378;2022-10-03T11:36:06;94315.41;;;16.28;54.20
7335;BME280;3708;42.632;23.378;2022-10-03T11:38:43;94317.09;;;16.39;53.77
7335;BME280;3708;42.632;23.378;2022-10-03T11:41:21;94310.75;;;15.79;52.08
7335;BME280;3708;42.632;23.378;2022-10-03T11:44:11;94337.78;;;15.73;52.26
7335;BME280;3708;42.632;23.378;2022-10-03T11:46:49;94365.22;;;15.49;53.43
7335;BME280;3708;42.632;23.378;2022-10-03T11:49:48;94333.47;;;15.84;51.58
7335;BME280;3708;42.632;23.378;2022-10-03T11:52:27;94320.84;;;16.16;52.19
7335;BME280;3708;42.632;23.378;2022-10-03T11:55:23;94305.75;;;15.93;53.10
7335;BME280;3708;42.632;23.378;2022-10-03T11:58:02;94309.63;;;15.99;52.73
7335;BME280;3708;42.632;23.378;2022-10-03T12:00:34;94333.66;;;16.14;51.38
7335;BME280;3708;42.632;23.378;2022-10-03T12:03:13;94327.25;;;16.15;52.44
7335;BME280;3708;42.632;23.378;2022-10-03T12:05:57;94308.34;;;16.13;52.42
7335;BME280;3708;42.632;23.378;2022-10-03T12:08:41;94317.13;;;16.62;51.27
7335;BME280;3708;42.632;23.378;2022-10-03T12:11:24;94310.38;;;16.64;50.62
7335;BME280;3708;42.632;23.378;2022-10-03T12:14:14;94306.47;;;16.81;51.14
7335;BME280;3708;42.632;23.378;2022-10-03T12:16:56;94301.16;;;17.33;50.64
7335;BME280;3708;42.632;23.378;2022-10-03T12:19:32;94305.63;;;17.89;49.04
7335;BME280;3708;42.632;23.378;2022-10-03T12:22:11;94320.06;;;17.62;49.54
7335;BME280;3708;42.632;23.378;2022-10-03T12:24:45;94326.72;;;16.96;50.64
7335;BME280;3708;42.632;23.378;2022-10-03T12:27:20;94314.06;;;17.38;49.71
7335;BME280;3708;42.632;23.378;2022-10-03T12:29:56;94299.81;;;17.46;49.10
7335;BME280;3708;42.632;23.378;2022-10-03T12:32:30;94336.28;;;17.04;49.85
7335;BME280;3708;42.632;23.378;2022-10-03T12:35:10;94309.94;;;17.11;50.70
7335;BME280;3708;42.632;23.378;2022-10-03T12:37:56;94303.28;;;17.84;48.98
7335;BME280;3708;42.632;23.378;2022-10-03T12:40:31;94304.94;;;17.99;47.78
7335;BME280;3708;42.632;23.378;2022-10-03T12:43:06;94277.97;;;18.70;45.22
7335;BME280;3708;42.632;23.378;2022-10-03T12:45:40;94304.50;;;18.30;43.77
7335;BME280;3708;42.632;23.378;2022-10-03T12:48:39;94296.69;;;18.04;44.65
7335;BME280;3708;42.632;23.378;2022-10-03T12:51:38;94295.03;;;18.29;43.61
7335;BME280;3708;42.632;23.378;2022-10-03T12:54:24;94299.13;;;18.23;43.07
7335;BME280;3708;42.632;23.378;2022-10-03T12:57:22;94328.53;;;17.44;44.54
7335;BME280;3708;42.632;23.378;2022-10-03T13:00:01;94305.88;;;18.13;43.33
7335;BME280;3708;42.632;23.378;2022-10-03T13:02:34;94311.09;;;18.06;42.96
7335;BME280;3708;42.632;23.378;2022-10-03T13:05:30;94313.13;;;17.24;43.70
7335;BME280;3708;42.632;23.378;2022-10-03T13:08:03;94298.28;;;17.45;43.07
7335;BME280;3708;42.632;23.378;2022-10-03T13:10:39;94318.75;;;17.78;42.78
7335;BME280;3708;42.632;23.378;2022-10-03T13:13:23;94297.56;;;17.82;43.41
7335;BME280;3708;42.632;23.378;2022-10-03T13:18:52;94313.53;;;18.22;42.67
7335;BME280;3708;42.632;23.378;2022-10-03T13:21:46;94336.44;;;17.71;42.59
7335;BME280;3708;42.632;23.378;2022-10-03T13:24:27;94302.66;;;17.64;43.09
7335;BME280;3708;42.632;23.378;2022-10-03T13:27:08;94319.81;;;17.44;43.85
7335;BME280;3708;42.632;23.378;2022-10-03T13:29:40;94294.00;;;18.00;42.77
7335;BME280;3708;42.632;23.378;2022-10-03T13:32:15;94295.69;;;18.59;41.35
7335;BME280;3708;42.632;23.378;2022-10-03T13:41:23;94313.91;;;17.54;43.53
7335;BME280;3708;42.632;23.378;2022-10-03T13:43:58;94336.97;;;17.83;43.25
7335;BME280;3708;42.632;23.378;2022-10-03T13:46:34;94297.19;;;17.80;42.81
7335;BME280;3708;42.632;23.378;2022-10-03T13:49:13;94317.66;;;17.83;41.64
7335;BME280;3708;42.632;23.378;2022-10-03T13:51:49;94318.00;;;18.18;40.87
7335;BME280;3708;42.632;23.378;2022-10-03T13:54:43;94309.59;;;17.72;40.38
7335;BME280;3708;42.632;23.378;2022-10-03T13:57:15;94298.00;;;17.50;40.63
7335;BME280;3708;42.632;23.378;2022-10-03T13:59:57;94308.19;;;17.82;39.20
7335;BME280;3708;42.632;23.378;2022-10-03T14:02:41;94308.66;;;18.68;38.39
7335;BME280;3708;42.632;23.378;2022-10-03T14:05:35;94300.19;;;18.52;39.10
7335;BME280;3708;42.632;23.378;2022-10-03T14:08:10;94295.50;;;18.82;38.10
7335;BME280;3708;42.632;23.378;2022-10-03T14:11:07;94298.78;;;17.88;39.61
7335;BME280;3708;42.632;23.378;2022-10-03T14:13:50;94292.72;;;18.68;38.46
7335;BME280;3708;42.632;23.378;2022-10-03T14:16:25;94301.00;;;18.19;39.38
7335;BME280;3708;42.632;23.378;2022-10-03T14:19:00;94319.28;;;17.31;40.68
7335;BME280;3708;42.632;23.378;2022-10-03T14:21:59;94312.84;;;17.59;39.79
7335;BME280;3708;42.632;23.378;2022-10-03T14:24:46;94302.41;;;17.43;41.03
7335;BME280;3708;42.632;23.378;2022-10-03T14:27:33;94306.19;;;17.72;40.86
7335;BME280;3708;42.632;23.378;2022-10-03T14:30:04;94319.47;;;17.49;41.03
7335;BME280;3708;42.632;23.378;2022-10-03T14:32:44;94303.22;;;17.77;39.66
7335;BME280;3708;42.632;23.378;2022-10-03T14:35:21;94336.44;;;18.41;39.26
7335;BME280;3708;42.632;23.378;2022-10-03T14:37:55;94326.50;;;17.64;40.67
7335;BME280;3708;42.632;23.378;2022-10-03T14:40:32;94323.63;;;18.46;39.03
7335;BME280;3708;42.632;23.378;2022-10-03T14:43:12;94316.13;;;18.18;39.92
7335;BME280;3708;42.632;23.378;2022-10-03T14:45:47;94320.03;;;17.91;39.31
7335;BME280;3708;42.632;23.378;2022-10-03T14:48:20;94319.31;;;17.61;40.18
7335;BME280;3708;42.632;23.378;2022-10-03T14:50:49;94316.53;;;17.50;40.04
7335;BME280;3708;42.632;23.378;2022-10-03T14:53:19;94329.16;;;17.08;40.93
7335;BME280;3708;42.632;23.378;2022-10-03T14:55:55;94355.91;;;16.54;42.79
7335;BME280;3708;42.632;23.378;2022-10-03T14:58:28;94341.84;;;16.28;43.72
7335;BME280;3708;42.632;23.378;2022-10-03T15:01:05;94337.72;;;16.30;44.08
7335;BME280;3708;42.632;23.378;2022-10-03T15:03:41;94336.22;;;16.10;45.20
7335;BME280;3708;42.632;23.378;2022-10-03T15:06:19;94326.41;;;15.15;48.04
7335;BME280;3708;42.632;23.378;2022-10-03T15:08:49;94329.81;;;15.15;48.85
7335;BME280;3708;42.632;23.378;2022-10-03T15:11:23;94331.78;;;15.03;49.86
7335;BME280;3708;42.632;23.378;2022-10-03T15:13:54;94317.31;;;14.97;50.04
7335;BME280;3708;42.632;23.378;2022-10-03T15:16:23;94312.28;;;15.07;49.91
7335;BME280;3708;42.632;23.378;2022-10-03T15:18:56;94344.94;;;15.18;49.49
7335;BME280;3708;42.632;23.378;2022-10-03T15:21:25;94328.81;;;14.89;50.88
7335;BME280;3708;42.632;23.378;2022-10-03T15:23:55;94330.31;;;15.05;50.99
7335;BME280;3708;42.632;23.378;2022-10-03T15:26:25;94325.22;;;15.66;49.81
7335;BME280;3708;42.632;23.378;2022-10-03T15:28:57;94338.00;;;15.45;49.71
7335;BME280;3708;42.632;23.378;2022-10-03T15:31:35;94345.84;;;15.26;50.12
7335;BME280;3708;42.632;23.378;2022-10-03T15:34:11;94342.41;;;15.41;48.86
7335;BME280;3708;42.632;23.378;2022-10-03T15:36:45;94354.09;;;15.59;48.13
7335;BME280;3708;42.632;23.378;2022-10-03T15:39:20;94355.03;;;15.32;48.34
7335;BME280;3708;42.632;23.378;2022-10-03T15:41:54;94350.63;;;14.86;49.16
7335;BME280;3708;42.632;23.378;2022-10-03T15:44:30;94351.72;;;15.00;48.67
7335;BME280;3708;42.632;23.378;2022-10-03T15:47:05;94354.41;;;15.04;49.13
7335;BME280;3708;42.632;23.378;2022-10-03T15:49:38;94362.84;;;14.63;49.45
7335;BME280;3708;42.632;23.378;2022-10-03T15:52:12;94360.66;;;14.49;50.09
7335;BME280;3708;42.632;23.378;2022-10-03T15:54:45;94359.31;;;14.71;49.59
7335;BME280;3708;42.632;23.378;2022-10-03T15:57:49;94381.16;;;14.56;49.59
7335;BME280;3708;42.632;23.378;2022-10-03T16:00:20;94371.97;;;14.81;49.02
7335;BME280;3708;42.632;23.378;2022-10-03T16:02:55;94365.50;;;14.63;49.41
7335;BME280;3708;42.632;23.378;2022-10-03T16:05:35;94370.25;;;14.41;49.29
7335;BME280;3708;42.632;23.378;2022-10-03T16:08:15;94367.72;;;14.61;48.55
7335;BME280;3708;42.632;23.378;2022-10-03T16:11:03;94369.59;;;14.44;49.13
7335;BME280;3708;42.632;23.378;2022-10-03T16:13:35;94382.16;;;14.67;48.45
7335;BME280;3708;42.632;23.378;2022-10-03T16:16:15;94385.41;;;14.76;47.96
7335;BME280;3708;42.632;23.378;2022-10-03T16:18:50;94402.75;;;14.18;49.47
7335;BME280;3708;42.632;23.378;2022-10-03T16:21:30;94389.50;;;14.58;48.69
7335;BME280;3708;42.632;23.378;2022-10-03T16:24:00;94401.28;;;14.48;48.51
7335;BME280;3708;42.632;23.378;2022-10-03T16:26:33;94412.91;;;14.31;48.88
7335;BME280;3708;42.632;23.378;2022-10-03T16:29:11;94405.72;;;14.44;48.52
7335;BME280;3708;42.632;23.378;2022-10-03T16:31:49;94423.00;;;14.57;48.51
7335;BME280;3708;42.632;23.378;2022-10-03T16:34:23;94417.91;;;14.09;49.87
7335;BME280;3708;42.632;23.378;2022-10-03T16:36:54;94415.31;;;14.52;49.18
7335;BME280;3708;42.632;23.378;2022-10-03T16:39:24;94429.22;;;14.09;50.18
7335;BME280;3708;42.632;23.378;2022-10-03T16:41:57;94419.59;;;14.57;49.60
7335;BME280;3708;42.632;23.378;2022-10-03T16:44:29;94408.72;;;14.74;49.28
7335;BME280;3708;42.632;23.378;2022-10-03T16:47:02;94422.47;;;14.51;49.88
7335;BME280;3708;42.632;23.378;2022-10-03T16:49:40;94414.06;;;14.18;50.68
7335;BME280;3708;42.632;23.378;2022-10-03T16:52:31;94421.09;;;14.42;50.04
7335;BME280;3708;42.632;23.378;2022-10-03T16:55:03;94430.78;;;14.26;50.70
7335;BME280;3708;42.632;23.378;2022-10-03T16:57:42;94434.81;;;13.80;52.00
7335;BME280;3708;42.632;23.378;2022-10-03T17:00:17;94426.31;;;14.70;49.83
7335;BME280;3708;42.632;23.378;2022-10-03T17:02:50;94432.56;;;14.34;51.51
7335;BME280;3708;42.632;23.378;2022-10-03T17:05:22;94434.06;;;14.07;51.99
7335;BME280;3708;42.632;23.378;2022-10-03T17:08:09;94433.00;;;14.24;51.95
7335;BME280;3708;42.632;23.378;2022-10-03T17:10:39;94440.97;;;14.39;51.64
7335;BME280;3708;42.632;23.378;2022-10-03T17:13:13;94448.25;;;14.30;52.05